createdAt,value
2022-07-30T00:05:40.072Z,1.50
2022-07-30T00:12:40.915Z,2.10
2022-07-30T00:19:41.342Z,1.90
2022-07-30T00:26:41.977Z,1.70
2022-07-30T00:33:42.849Z,2.20
2022-07-30T00:40:43.765Z,2.10
2022-07-30T00:47:44.880Z,2.20
2022-07-30T00:54:45.288Z,2.07
2022-07-30T01:01:45.724Z,2.13
2022-07-30T01:08:46.232Z,2.80
2022-07-30T01:15:46.824Z,2.70
2022-07-30T01:22:50.310Z,3.17
2022-07-30T01:29:53.413Z,2.57
2022-07-30T01:36:56.595Z,2.07
2022-07-30T01:43:57.921Z,2.93
2022-07-30T01:51:02.006Z,2.37
2022-07-30T01:58:06.095Z,2.17
2022-07-30T02:05:09.070Z,1.83
2022-07-30T02:12:31.464Z,1.67
2022-07-30T02:19:41.960Z,2.20
2022-07-30T02:26:46.221Z,2.43
2022-07-30T02:33:49.543Z,3.77
2022-07-30T02:40:50.790Z,2.00
2022-07-30T02:47:58.632Z,2.70
2022-07-30T02:55:00.301Z,2.47
2022-07-30T03:02:04.582Z,2.40
2022-07-30T03:09:07.412Z,2.57
2022-07-30T03:16:11.295Z,2.60
2022-07-30T03:23:13.588Z,3.00
2022-07-30T03:30:14.513Z,3.10
2022-07-30T03:37:16.044Z,3.40
2022-07-30T03:44:17.454Z,3.10
2022-07-30T03:51:18.601Z,2.93
2022-07-30T03:58:20.263Z,4.00
2022-07-30T04:05:21.254Z,4.47
2022-07-30T04:12:23.502Z,4.53
2022-07-30T04:19:31.025Z,3.73
2022-07-30T04:26:33.145Z,4.00
2022-07-30T04:33:33.757Z,3.77
2022-07-30T04:40:44.828Z,3.90
2022-07-30T04:47:45.925Z,3.50
2022-07-30T04:55:12.433Z,4.40
2022-07-30T05:02:15.799Z,5.00
2022-07-30T05:09:17.562Z,4.63
2022-07-30T05:16:18.930Z,4.73
2022-07-30T05:23:19.769Z,5.47
2022-07-30T05:30:30.921Z,4.73
2022-07-30T05:37:33.528Z,5.70
2022-07-30T05:44:34.169Z,5.20
2022-07-30T05:51:34.544Z,5.30
2022-07-30T05:58:36.317Z,5.93
2022-07-30T06:05:36.591Z,6.13
2022-07-30T06:12:37.057Z,5.50
2022-07-30T06:19:37.629Z,6.57
2022-07-30T06:26:38.198Z,7.13
2022-07-30T06:33:39.902Z,9.27
2022-07-30T06:40:40.348Z,11.67
2022-07-30T06:47:58.617Z,11.67
2022-07-30T06:54:59.772Z,13.27
2022-07-30T07:02:06.114Z,9.43
2022-07-30T07:09:16.462Z,9.40
2022-07-30T07:16:29.812Z,10.63
2022-07-30T07:23:41.672Z,9.20
2022-07-30T07:31:03.348Z,8.10
2022-07-30T07:38:04.319Z,7.30
2022-07-30T07:45:05.734Z,7.17
2022-07-30T07:52:12.734Z,7.70
2022-07-30T07:59:13.177Z,6.27
2022-07-30T08:06:18.311Z,5.73
2022-07-30T08:13:51.645Z,5.00
2022-07-30T08:21:11.889Z,3.67
2022-07-30T08:28:36.291Z,4.67
2022-07-30T08:35:33.684Z,3.97
2022-07-30T08:42:35.966Z,4.13
2022-07-30T08:49:37.887Z,4.43
2022-07-30T08:56:38.836Z,3.17
2022-07-30T09:03:44.216Z,4.43
2022-07-30T09:10:49.546Z,4.80
2022-07-30T09:18:02.960Z,4.43
2022-07-30T09:25:06.967Z,5.23
2022-07-30T09:32:54.637Z,6.17
2022-07-30T09:40:18.453Z,4.93
2022-07-30T09:47:40.389Z,4.40
2022-07-30T09:54:51.564Z,4.93
2022-07-30T10:02:01.003Z,3.70
2022-07-30T10:09:32.656Z,3.30
2022-07-30T10:16:38.412Z,3.92
2022-07-30T10:23:44.387Z,2.83
2022-07-30T10:31:08.364Z,2.65
2022-07-30T10:38:32.398Z,2.22
2022-07-30T10:46:22.023Z,2.70
2022-07-30T10:53:59.507Z,2.22
2022-07-30T11:01:00.386Z,2.28
2022-07-30T11:08:32.347Z,1.90
2022-07-30T11:15:56.980Z,1.73
2022-07-30T11:23:31.298Z,1.70
2022-07-30T11:30:36.881Z,1.55
2022-07-30T11:38:15.442Z,1.52
2022-07-30T11:45:26.626Z,1.42
2022-07-30T11:52:27.633Z,1.55
2022-07-30T11:59:28.210Z,1.30
2022-07-30T12:06:30.015Z,1.48
2022-07-30T12:13:44.280Z,1.70
2022-07-30T12:20:57.516Z,0.98
2022-07-30T12:27:58.096Z,0.85
2022-07-30T12:34:59.132Z,1.02
2022-07-30T12:42:00.530Z,1.10
2022-07-30T12:49:21.499Z,0.80
2022-07-30T12:56:26.132Z,0.82
2022-07-30T13:03:29.102Z,1.10
2022-07-30T13:10:31.438Z,1.00
2022-07-30T13:17:36.215Z,0.85
2022-07-30T13:24:39.224Z,0.77
2022-07-30T13:31:42.759Z,1.10
2022-07-30T13:38:43.764Z,0.93
2022-07-30T13:45:44.235Z,0.65
2022-07-30T13:52:44.725Z,0.50
2022-07-30T13:59:45.613Z,0.60
2022-07-30T14:06:46.676Z,0.50
2022-07-30T14:13:47.162Z,0.50
2022-07-30T14:20:49.291Z,0.40
2022-07-30T14:27:50.149Z,0.85
2022-07-30T14:34:51.069Z,0.40
2022-07-30T14:41:52.353Z,1.45
2022-07-30T14:48:56.751Z,0.40
2022-07-30T14:55:57.731Z,0.50
2022-07-30T15:02:58.625Z,0.80
2022-07-30T15:09:59.122Z,0.30
2022-07-30T15:17:04.296Z,0.35
2022-07-30T15:24:05.459Z,0.68
2022-07-30T15:31:06.024Z,0.38
2022-07-30T15:38:06.543Z,0.40
2022-07-30T15:45:17.224Z,0.30
2022-07-30T15:52:18.650Z,0.50
2022-07-30T15:59:20.696Z,0.50
2022-07-30T16:06:21.625Z,0.50
2022-07-30T16:13:22.393Z,0.55
2022-07-30T16:20:23.237Z,1.00
2022-07-30T16:27:25.557Z,2.55
2022-07-30T16:34:26.693Z,1.13
2022-07-30T16:41:27.748Z,1.20
2022-07-30T16:48:28.324Z,0.60
2022-07-30T16:55:28.706Z,0.52
2022-07-30T17:02:29.101Z,0.40
2022-07-30T17:09:34.899Z,0.75
2022-07-30T17:16:37.694Z,0.40
2022-07-30T17:23:38.813Z,1.98
2022-07-30T17:30:39.295Z,0.50
2022-07-30T17:37:40.085Z,0.30
2022-07-30T17:44:42.423Z,0.40
2022-07-30T17:51:42.853Z,0.70
2022-07-30T17:58:45.975Z,0.50
2022-07-30T18:05:51.826Z,0.45
2022-07-30T18:12:52.904Z,0.47
2022-07-30T18:19:54.250Z,1.00
2022-07-30T18:26:55.213Z,0.38
2022-07-30T18:33:55.860Z,1.95
2022-07-30T18:40:58.772Z,0.68
2022-07-30T18:47:59.487Z,0.40
2022-07-30T18:55:00.380Z,0.47
2022-07-30T19:02:01.572Z,1.10
2022-07-30T19:09:03.404Z,0.77
2022-07-30T19:16:04.157Z,0.43
2022-07-30T19:23:06.593Z,0.38
2022-07-30T19:30:08.223Z,0.82
2022-07-30T19:37:09.644Z,0.55
2022-07-30T19:44:11.968Z,0.60
2022-07-30T19:51:20.219Z,2.08
2022-07-30T19:58:21.460Z,1.15
2022-07-30T20:05:24.893Z,1.20
2022-07-30T20:12:25.559Z,2.83
2022-07-30T20:19:27.973Z,0.60
2022-07-30T20:26:37.357Z,4.70
2022-07-30T20:33:39.236Z,1.70
2022-07-30T20:40:39.884Z,1.10
2022-07-30T20:47:40.825Z,1.85
2022-07-30T20:54:45.202Z,0.90
2022-07-30T21:01:46.042Z,0.93
2022-07-30T21:08:47.854Z,0.70
2022-07-30T21:16:01.864Z,0.90
2022-07-30T21:23:06.041Z,0.98
2022-07-30T21:30:11.286Z,0.65
2022-07-30T21:37:15.402Z,0.82
2022-07-30T21:44:16.515Z,2.78
2022-07-30T21:51:18.125Z,3.83
2022-07-30T21:58:25.981Z,3.05
2022-07-30T22:05:38.620Z,0.70
2022-07-30T22:12:39.759Z,0.90
2022-07-30T22:19:41.314Z,1.42
2022-07-30T22:26:44.789Z,0.70
2022-07-30T22:33:49.761Z,0.73
2022-07-30T22:40:50.838Z,0.90
2022-07-30T22:47:54.357Z,0.80
2022-07-30T22:55:02.148Z,0.57
2022-07-30T23:02:17.087Z,0.80
2022-07-30T23:09:18.459Z,0.60
2022-07-30T23:16:20.405Z,0.90
2022-07-30T23:23:21.034Z,1.52
2022-07-30T23:30:21.400Z,1.05
2022-07-30T23:37:21.914Z,0.70
2022-07-30T23:44:22.141Z,0.70
2022-07-30T23:51:22.720Z,1.02
2022-07-30T23:58:23.696Z,0.77
